Ramos Otero, Argentina
Current Conditions -  °F | °C
As of 12:00 AM on Thursday 23 Oct 2014 (Local Time) from SAZM Reporting Station
Broken Clouds Broken Clouds  
Wind Chill: 63°   Ceiling: 8000
Heat Index: 63°   Visibility: 4mi
Dew Point: 57°   Wind: 8mph
Humidity: 82%   Direction: 180°S
Pressure: 30.03"   Gusts: NA
Location:  37.54°S, 58.34°W
Report Text: SAZM 230300Z 18007KT 7000 SCT030 BKN08017/14 Q1017
Loading
Personal Weather Stations






























Interactive Weather Map
Tropical Storm Tracking
New forecast layout! Learn more

10-Day Weather Forecast

Advertisements
Track Severe Weather on mobile